sensor_id;sensor_type;location;lat;lon;timestamp;temperature;humidity
20463;DHT22;10390;53.566;9.980;2023-02-12T00:01:36;24.90;1.00
20463;DHT22;10390;53.566;9.980;2023-02-12T00:04:02;24.90;1.00
20463;DHT22;10390;53.566;9.980;2023-02-12T00:06:28;25.00;1.00
20463;DHT22;10390;53.566;9.980;2023-02-12T00:08:55;25.00;1.00
20463;DHT22;10390;53.566;9.980;2023-02-12T00:11:26;25.10;1.00
20463;DHT22;10390;53.566;9.980;2023-02-12T00:13:52;25.10;1.00
20463;DHT22;10390;53.566;9.980;2023-02-12T00:16:21;25.10;1.00
20463;DHT22;10390;53.566;9.980;2023-02-12T00:18:51;25.10;1.00
20463;DHT22;10390;53.566;9.980;2023-02-12T00:21:17;25.10;1.00
20463;DHT22;10390;53.566;9.980;2023-02-12T00:23:42;25.10;1.00
20463;DHT22;10390;53.566;9.980;2023-02-12T00:26:16;25.10;1.00
20463;DHT22;10390;53.566;9.980;2023-02-12T00:28:42;25.20;1.00
20463;DHT22;10390;53.566;9.980;2023-02-12T00:31:11;25.20;1.00
20463;DHT22;10390;53.566;9.980;2023-02-12T00:33:37;25.20;1.00
20463;DHT22;10390;53.566;9.980;2023-02-12T00:36:04;25.30;1.00
20463;DHT22;10390;53.566;9.980;2023-02-12T00:38:30;25.30;1.00
20463;DHT22;10390;53.566;9.980;2023-02-12T00:40:56;25.30;1.00
20463;DHT22;10390;53.566;9.980;2023-02-12T00:43:22;25.40;1.00
20463;DHT22;10390;53.566;9.980;2023-02-12T00:45:47;25.30;1.00
20463;DHT22;10390;53.566;9.980;2023-02-12T00:48:14;25.40;1.00
20463;DHT22;10390;53.566;9.980;2023-02-12T00:50:39;25.40;1.00
20463;DHT22;10390;53.566;9.980;2023-02-12T00:53:06;25.40;1.00
20463;DHT22;10390;53.566;9.980;2023-02-12T00:55:32;25.40;1.00
20463;DHT22;10390;53.566;9.980;2023-02-12T00:57:59;25.40;1.00
20463;DHT22;10390;53.566;9.980;2023-02-12T01:00:25;25.40;1.00
20463;DHT22;10390;53.566;9.980;2023-02-12T01:02:51;25.50;1.00
20463;DHT22;10390;53.566;9.980;2023-02-12T01:05:17;25.50;1.00
20463;DHT22;10390;53.566;9.980;2023-02-12T01:07:47;25.50;1.00
20463;DHT22;10390;53.566;9.980;2023-02-12T01:10:13;25.50;1.00
20463;DHT22;10390;53.566;9.980;2023-02-12T01:12:39;25.50;1.00
20463;DHT22;10390;53.566;9.980;2023-02-12T01:15:05;25.50;1.00
20463;DHT22;10390;53.566;9.980;2023-02-12T01:17:30;25.50;1.00
20463;DHT22;10390;53.566;9.980;2023-02-12T01:19:57;25.50;1.00
20463;DHT22;10390;53.566;9.980;2023-02-12T01:22:23;25.50;1.00
20463;DHT22;10390;53.566;9.980;2023-02-12T01:24:49;25.50;1.00
20463;DHT22;10390;53.566;9.980;2023-02-12T01:27:14;25.50;1.00
20463;DHT22;10390;53.566;9.980;2023-02-12T01:29:40;25.50;1.00
20463;DHT22;10390;53.566;9.980;2023-02-12T01:32:09;25.50;1.00
20463;DHT22;10390;53.566;9.980;2023-02-12T01:34:35;25.50;1.00
20463;DHT22;10390;53.566;9.980;2023-02-12T01:37:01;25.50;1.00
20463;DHT22;10390;53.566;9.980;2023-02-12T01:39:27;25.50;1.00
20463;DHT22;10390;53.566;9.980;2023-02-12T01:41:53;25.50;1.00
20463;DHT22;10390;53.566;9.980;2023-02-12T01:44:21;25.50;1.00
20463;DHT22;10390;53.566;9.980;2023-02-12T01:46:48;25.50;1.00
20463;DHT22;10390;53.566;9.980;2023-02-12T01:49:23;25.50;1.00
20463;DHT22;10390;53.566;9.980;2023-02-12T01:51:54;25.50;1.00
20463;DHT22;10390;53.566;9.980;2023-02-12T01:54:22;25.50;1.00
20463;DHT22;10390;53.566;9.980;2023-02-12T01:56:50;25.50;1.00
20463;DHT22;10390;53.566;9.980;2023-02-12T01:59:16;25.50;1.00
20463;DHT22;10390;53.566;9.980;2023-02-12T02:01:43;25.50;1.00
20463;DHT22;10390;53.566;9.980;2023-02-12T02:04:14;25.50;1.00
20463;DHT22;10390;53.566;9.980;2023-02-12T02:06:59;25.50;1.00
20463;DHT22;10390;53.566;9.980;2023-02-12T02:09:26;25.50;1.00
20463;DHT22;10390;53.566;9.980;2023-02-12T02:11:52;25.50;1.00
20463;DHT22;10390;53.566;9.980;2023-02-12T02:14:38;25.50;1.00
20463;DHT22;10390;53.566;9.980;2023-02-12T02:17:14;25.50;1.00
20463;DHT22;10390;53.566;9.980;2023-02-12T02:33:58;25.50;1.00
20463;DHT22;10390;53.566;9.980;2023-02-12T02:36:49;25.50;1.00
20463;DHT22;10390;53.566;9.980;2023-02-12T02:39:27;25.50;1.00
20463;DHT22;10390;53.566;9.980;2023-02-12T02:41:58;25.50;1.00
20463;DHT22;10390;53.566;9.980;2023-02-12T02:44:58;25.50;1.00
20463;DHT22;10390;53.566;9.980;2023-02-12T02:47:31;25.50;1.00
20463;DHT22;10390;53.566;9.980;2023-02-12T02:50:09;25.50;1.00
20463;DHT22;10390;53.566;9.980;2023-02-12T02:52:44;25.50;1.00
20463;DHT22;10390;53.566;9.980;2023-02-12T02:55:14;25.50;1.00
20463;DHT22;10390;53.566;9.980;2023-02-12T02:57:46;25.60;1.00
20463;DHT22;10390;53.566;9.980;2023-02-12T03:00:32;25.50;1.00
20463;DHT22;10390;53.566;9.980;2023-02-12T03:05:46;25.50;1.00
20463;DHT22;10390;53.566;9.980;2023-02-12T03:10:43;25.50;1.00
20463;DHT22;10390;53.566;9.980;2023-02-12T03:13:17;25.60;1.00
20463;DHT22;10390;53.566;9.980;2023-02-12T03:16:43;25.60;1.00
20463;DHT22;10390;53.566;9.980;2023-02-12T03:19:14;25.50;1.00
20463;DHT22;10390;53.566;9.980;2023-02-12T03:26:54;25.60;1.00
20463;DHT22;10390;53.566;9.980;2023-02-12T03:29:22;25.60;1.00
20463;DHT22;10390;53.566;9.980;2023-02-12T03:32:01;25.60;1.00
20463;DHT22;10390;53.566;9.980;2023-02-12T03:37:12;25.50;1.00
20463;DHT22;10390;53.566;9.980;2023-02-12T03:47:46;25.50;1.00
20463;DHT22;10390;53.566;9.980;2023-02-12T03:52:57;25.50;1.00
20463;DHT22;10390;53.566;9.980;2023-02-12T03:55:23;25.50;1.00
20463;DHT22;10390;53.566;9.980;2023-02-12T03:57:56;25.50;1.00
20463;DHT22;10390;53.566;9.980;2023-02-12T04:00:25;25.50;1.00
20463;DHT22;10390;53.566;9.980;2023-02-12T04:02:53;25.50;1.00
20463;DHT22;10390;53.566;9.980;2023-02-12T04:05:24;25.50;1.00
20463;DHT22;10390;53.566;9.980;2023-02-12T04:07:51;25.50;1.00
20463;DHT22;10390;53.566;9.980;2023-02-12T04:10:18;25.50;1.00
20463;DHT22;10390;53.566;9.980;2023-02-12T04:13:19;25.50;1.00
20463;DHT22;10390;53.566;9.980;2023-02-12T04:18:49;25.50;1.00
20463;DHT22;10390;53.566;9.980;2023-02-12T04:21:29;25.40;1.00
20463;DHT22;10390;53.566;9.980;2023-02-12T04:27:01;25.40;1.00
20463;DHT22;10390;53.566;9.980;2023-02-12T04:30:01;25.50;1.00
20463;DHT22;10390;53.566;9.980;2023-02-12T04:32:31;25.50;1.00
20463;DHT22;10390;53.566;9.980;2023-02-12T04:37:56;25.50;1.00
20463;DHT22;10390;53.566;9.980;2023-02-12T04:40:23;25.50;1.00
20463;DHT22;10390;53.566;9.980;2023-02-12T04:42:51;25.50;1.00
20463;DHT22;10390;53.566;9.980;2023-02-12T04:45:27;25.50;1.00
20463;DHT22;10390;53.566;9.980;2023-02-12T04:47:52;25.50;1.00
20463;DHT22;10390;53.566;9.980;2023-02-12T04:50:18;25.50;1.00
20463;DHT22;10390;53.566;9.980;2023-02-12T04:52:44;25.50;1.00
20463;DHT22;10390;53.566;9.980;2023-02-12T04:55:16;25.50;1.00
20463;DHT22;10390;53.566;9.980;2023-02-12T04:57:42;25.50;1.00
20463;DHT22;10390;53.566;9.980;2023-02-12T05:00:11;25.50;1.00
20463;DHT22;10390;53.566;9.980;2023-02-12T05:02:37;25.50;1.00
20463;DHT22;10390;53.566;9.980;2023-02-12T05:05:03;25.50;1.00
20463;DHT22;10390;53.566;9.980;2023-02-12T05:07:29;25.60;1.00
20463;DHT22;10390;53.566;9.980;2023-02-12T05:09:54;25.60;1.00
20463;DHT22;10390;53.566;9.980;2023-02-12T05:12:20;25.60;1.00
20463;DHT22;10390;53.566;9.980;2023-02-12T05:14:46;25.60;1.00
20463;DHT22;10390;53.566;9.980;2023-02-12T05:17:11;25.60;1.00
20463;DHT22;10390;53.566;9.980;2023-02-12T05:19:37;25.60;1.00
20463;DHT22;10390;53.566;9.980;2023-02-12T05:22:02;25.50;1.00
20463;DHT22;10390;53.566;9.980;2023-02-12T05:24:28;25.60;1.00
20463;DHT22;10390;53.566;9.980;2023-02-12T05:26:54;25.50;1.00
20463;DHT22;10390;53.566;9.980;2023-02-12T05:29:19;25.50;1.00
20463;DHT22;10390;53.566;9.980;2023-02-12T05:31:45;25.50;1.00
20463;DHT22;10390;53.566;9.980;2023-02-12T05:34:11;25.50;1.00
20463;DHT22;10390;53.566;9.980;2023-02-12T05:36:38;25.50;1.00
20463;DHT22;10390;53.566;9.980;2023-02-12T05:39:04;25.50;1.00
20463;DHT22;10390;53.566;9.980;2023-02-12T05:41:30;25.50;1.00
20463;DHT22;10390;53.566;9.980;2023-02-12T05:44:00;25.50;1.00
20463;DHT22;10390;53.566;9.980;2023-02-12T05:46:25;25.50;1.00
20463;DHT22;10390;53.566;9.980;2023-02-12T05:48:52;25.50;1.00
20463;DHT22;10390;53.566;9.980;2023-02-12T05:51:21;25.50;1.00
20463;DHT22;10390;53.566;9.980;2023-02-12T05:53:48;25.50;1.00
20463;DHT22;10390;53.566;9.980;2023-02-12T05:56:19;25.50;1.00
20463;DHT22;10390;53.566;9.980;2023-02-12T05:58:50;25.50;1.00
20463;DHT22;10390;53.566;9.980;2023-02-12T06:01:40;25.50;1.00
20463;DHT22;10390;53.566;9.980;2023-02-12T06:04:09;25.50;1.00
20463;DHT22;10390;53.566;9.980;2023-02-12T06:06:37;25.50;1.00
20463;DHT22;10390;53.566;9.980;2023-02-12T06:09:07;25.50;1.00
20463;DHT22;10390;53.566;9.980;2023-02-12T06:11:33;25.50;1.00
20463;DHT22;10390;53.566;9.980;2023-02-12T06:14:07;25.50;1.00
20463;DHT22;10390;53.566;9.980;2023-02-12T06:16:33;25.50;1.00
20463;DHT22;10390;53.566;9.980;2023-02-12T06:19:01;25.50;1.00
20463;DHT22;10390;53.566;9.980;2023-02-12T06:21:27;25.50;1.00
20463;DHT22;10390;53.566;9.980;2023-02-12T06:23:53;25.50;1.00
20463;DHT22;10390;53.566;9.980;2023-02-12T06:26:19;25.50;1.00
20463;DHT22;10390;53.566;9.980;2023-02-12T06:28:46;25.50;1.00
20463;DHT22;10390;53.566;9.980;2023-02-12T06:31:22;25.50;1.00
20463;DHT22;10390;53.566;9.980;2023-02-12T06:33:48;25.50;1.00
20463;DHT22;10390;53.566;9.980;2023-02-12T06:36:14;25.50;1.00
20463;DHT22;10390;53.566;9.980;2023-02-12T06:38:40;25.50;1.00
20463;DHT22;10390;53.566;9.980;2023-02-12T06:41:06;25.50;1.00
20463;DHT22;10390;53.566;9.980;2023-02-12T06:43:32;25.50;1.00
20463;DHT22;10390;53.566;9.980;2023-02-12T06:46:01;25.60;1.00
20463;DHT22;10390;53.566;9.980;2023-02-12T06:48:27;25.50;1.00
20463;DHT22;10390;53.566;9.980;2023-02-12T06:50:53;25.50;1.00
20463;DHT22;10390;53.566;9.980;2023-02-12T06:53:19;25.50;1.00
20463;DHT22;10390;53.566;9.980;2023-02-12T06:55:44;25.60;1.00
20463;DHT22;10390;53.566;9.980;2023-02-12T06:58:10;25.60;1.00
20463;DHT22;10390;53.566;9.980;2023-02-12T07:00:35;25.60;1.00
20463;DHT22;10390;53.566;9.980;2023-02-12T07:03:01;25.60;1.00
20463;DHT22;10390;53.566;9.980;2023-02-12T07:05:27;25.60;1.00
20463;DHT22;10390;53.566;9.980;2023-02-12T07:07:52;25.50;1.00
20463;DHT22;10390;53.566;9.980;2023-02-12T07:10:18;25.50;1.00
20463;DHT22;10390;53.566;9.980;2023-02-12T07:12:44;25.50;1.00
20463;DHT22;10390;53.566;9.980;2023-02-12T07:15:09;25.50;1.00
20463;DHT22;10390;53.566;9.980;2023-02-12T07:17:35;25.40;1.00
20463;DHT22;10390;53.566;9.980;2023-02-12T07:20:01;25.40;1.00
20463;DHT22;10390;53.566;9.980;2023-02-12T07:22:27;25.30;1.00
20463;DHT22;10390;53.566;9.980;2023-02-12T07:24:53;25.30;1.00
20463;DHT22;10390;53.566;9.980;2023-02-12T07:27:18;25.30;1.00
20463;DHT22;10390;53.566;9.980;2023-02-12T07:29:44;25.30;1.00
20463;DHT22;10390;53.566;9.980;2023-02-12T07:32:10;25.30;1.00
20463;DHT22;10390;53.566;9.980;2023-02-12T07:34:35;25.30;1.00
20463;DHT22;10390;53.566;9.980;2023-02-12T07:37:01;25.30;1.00
20463;DHT22;10390;53.566;9.980;2023-02-12T07:39:26;25.30;1.00
20463;DHT22;10390;53.566;9.980;2023-02-12T07:41:52;25.30;1.00
20463;DHT22;10390;53.566;9.980;2023-02-12T07:44:18;25.30;1.00
20463;DHT22;10390;53.566;9.980;2023-02-12T07:46:45;25.30;1.00
20463;DHT22;10390;53.566;9.980;2023-02-12T07:49:13;25.30;1.00
20463;DHT22;10390;53.566;9.980;2023-02-12T07:51:39;25.30;1.00
20463;DHT22;10390;53.566;9.980;2023-02-12T07:54:05;25.30;1.00
20463;DHT22;10390;53.566;9.980;2023-02-12T07:56:33;25.30;1.00
20463;DHT22;10390;53.566;9.980;2023-02-12T07:59:02;25.30;1.00
20463;DHT22;10390;53.566;9.980;2023-02-12T08:01:34;25.30;1.00
20463;DHT22;10390;53.566;9.980;2023-02-12T08:04:02;25.30;1.00
20463;DHT22;10390;53.566;9.980;2023-02-12T08:06:30;25.30;1.00
20463;DHT22;10390;53.566;9.980;2023-02-12T08:08:58;25.30;1.00
20463;DHT22;10390;53.566;9.980;2023-02-12T08:11:25;25.30;1.00
20463;DHT22;10390;53.566;9.980;2023-02-12T08:13:52;25.30;1.00
20463;DHT22;10390;53.566;9.980;2023-02-12T08:16:21;25.30;1.00
20463;DHT22;10390;53.566;9.980;2023-02-12T08:18:47;25.30;1.00
20463;DHT22;10390;53.566;9.980;2023-02-12T08:21:15;25.30;1.00
20463;DHT22;10390;53.566;9.980;2023-02-12T08:23:44;25.30;1.00
20463;DHT22;10390;53.566;9.980;2023-02-12T08:28:45;25.20;1.00
20463;DHT22;10390;53.566;9.980;2023-02-12T08:31:22;25.20;1.00
20463;DHT22;10390;53.566;9.980;2023-02-12T08:33:50;25.10;1.00
20463;DHT22;10390;53.566;9.980;2023-02-12T08:36:18;25.10;1.00
20463;DHT22;10390;53.566;9.980;2023-02-12T08:38:45;25.10;1.00
20463;DHT22;10390;53.566;9.980;2023-02-12T08:41:23;25.10;1.00
20463;DHT22;10390;53.566;9.980;2023-02-12T08:43:51;25.10;1.00
20463;DHT22;10390;53.566;9.980;2023-02-12T08:46:21;25.00;1.00
20463;DHT22;10390;53.566;9.980;2023-02-12T08:48:48;25.10;1.00
20463;DHT22;10390;53.566;9.980;2023-02-12T08:51:18;25.00;1.00
20463;DHT22;10390;53.566;9.980;2023-02-12T08:53:45;25.00;1.00
20463;DHT22;10390;53.566;9.980;2023-02-12T08:56:13;24.90;1.00
20463;DHT22;10390;53.566;9.980;2023-02-12T08:58:39;25.00;1.00
20463;DHT22;10390;53.566;9.980;2023-02-12T09:01:18;24.90;1.00
20463;DHT22;10390;53.566;9.980;2023-02-12T09:03:45;24.90;1.00
20463;DHT22;10390;53.566;9.980;2023-02-12T09:06:12;24.90;1.00
20463;DHT22;10390;53.566;9.980;2023-02-12T09:08:38;24.90;1.00
20463;DHT22;10390;53.566;9.980;2023-02-12T09:11:12;24.90;1.00
20463;DHT22;10390;53.566;9.980;2023-02-12T09:13:41;24.80;1.00
20463;DHT22;10390;53.566;9.980;2023-02-12T09:16:07;24.80;1.00
20463;DHT22;10390;53.566;9.980;2023-02-12T09:18:33;24.80;1.00
20463;DHT22;10390;53.566;9.980;2023-02-12T09:21:01;24.80;1.00
20463;DHT22;10390;53.566;9.980;2023-02-12T09:23:27;24.80;1.00
20463;DHT22;10390;53.566;9.980;2023-02-12T09:25:53;24.70;1.00
20463;DHT22;10390;53.566;9.980;2023-02-12T09:28:18;24.70;1.00
20463;DHT22;10390;53.566;9.980;2023-02-12T09:30:44;24.70;1.00
20463;DHT22;10390;53.566;9.980;2023-02-12T09:33:10;24.70;1.00
20463;DHT22;10390;53.566;9.980;2023-02-12T09:35:37;24.70;1.00
20463;DHT22;10390;53.566;9.980;2023-02-12T09:38:03;24.70;1.00
20463;DHT22;10390;53.566;9.980;2023-02-12T09:43:04;24.70;1.00
20463;DHT22;10390;53.566;9.980;2023-02-12T09:45:54;24.70;1.00
20463;DHT22;10390;53.566;9.980;2023-02-12T09:51:08;24.60;1.00
20463;DHT22;10390;53.566;9.980;2023-02-12T09:53:36;24.50;1.00
20463;DHT22;10390;53.566;9.980;2023-02-12T09:56:12;24.60;1.00
20463;DHT22;10390;53.566;9.980;2023-02-12T10:01:15;24.50;1.00
20463;DHT22;10390;53.566;9.980;2023-02-12T10:03:42;24.50;1.00
20463;DHT22;10390;53.566;9.980;2023-02-12T10:06:15;24.50;1.00
20463;DHT22;10390;53.566;9.980;2023-02-12T10:09:02;24.50;1.00
20463;DHT22;10390;53.566;9.980;2023-02-12T10:11:47;24.40;1.00
20463;DHT22;10390;53.566;9.980;2023-02-12T10:14:25;24.40;1.00
20463;DHT22;10390;53.566;9.980;2023-02-12T10:17:22;24.40;1.00
20463;DHT22;10390;53.566;9.980;2023-02-12T10:23:00;24.30;1.00
20463;DHT22;10390;53.566;9.980;2023-02-12T10:28:26;24.30;1.00
20463;DHT22;10390;53.566;9.980;2023-02-12T10:30:56;24.20;1.00
20463;DHT22;10390;53.566;9.980;2023-02-12T10:33:34;24.20;1.00
20463;DHT22;10390;53.566;9.980;2023-02-12T10:38:51;24.20;1.00
20463;DHT22;10390;53.566;9.980;2023-02-12T10:41:18;24.20;1.00
20463;DHT22;10390;53.566;9.980;2023-02-12T10:43:43;24.10;1.00
20463;DHT22;10390;53.566;9.980;2023-02-12T10:46:14;24.10;1.00
20463;DHT22;10390;53.566;9.980;2023-02-12T10:48:43;24.10;1.00
20463;DHT22;10390;53.566;9.980;2023-02-12T10:51:33;24.10;1.00
20463;DHT22;10390;53.566;9.980;2023-02-12T10:54:39;24.00;1.00
20463;DHT22;10390;53.566;9.980;2023-02-12T10:57:13;24.00;1.00
20463;DHT22;10390;53.566;9.980;2023-02-12T10:59:40;24.00;1.00
20463;DHT22;10390;53.566;9.980;2023-02-12T11:02:22;24.00;1.00
20463;DHT22;10390;53.566;9.980;2023-02-12T11:04:50;23.90;1.00
20463;DHT22;10390;53.566;9.980;2023-02-12T11:07:16;23.90;1.00
20463;DHT22;10390;53.566;9.980;2023-02-12T11:09:47;23.90;1.00
20463;DHT22;10390;53.566;9.980;2023-02-12T11:17:41;23.80;1.00
20463;DHT22;10390;53.566;9.980;2023-02-12T11:20:21;23.80;1.00
20463;DHT22;10390;53.566;9.980;2023-02-12T11:23:03;23.70;1.00
20463;DHT22;10390;53.566;9.980;2023-02-12T11:25:35;23.70;1.00
20463;DHT22;10390;53.566;9.980;2023-02-12T11:28:14;23.70;1.00
20463;DHT22;10390;53.566;9.980;2023-02-12T11:31:01;23.70;1.00
20463;DHT22;10390;53.566;9.980;2023-02-12T11:33:32;23.70;1.00
20463;DHT22;10390;53.566;9.980;2023-02-12T11:39:02;23.60;1.00
20463;DHT22;10390;53.566;9.980;2023-02-12T11:41:32;23.40;1.00
20463;DHT22;10390;53.566;9.980;2023-02-12T11:44:11;23.40;1.00
20463;DHT22;10390;53.566;9.980;2023-02-12T11:46:38;23.40;1.00
20463;DHT22;10390;53.566;9.980;2023-02-12T11:49:05;23.50;1.00
20463;DHT22;10390;53.566;9.980;2023-02-12T11:51:34;23.60;1.00
20463;DHT22;10390;53.566;9.980;2023-02-12T11:54:02;23.70;1.00
20463;DHT22;10390;53.566;9.980;2023-02-12T11:56:46;23.80;1.00
20463;DHT22;10390;53.566;9.980;2023-02-12T11:59:33;24.00;1.00
20463;DHT22;10390;53.566;9.980;2023-02-12T12:02:17;24.10;1.00
20463;DHT22;10390;53.566;9.980;2023-02-12T12:04:45;24.20;1.00
20463;DHT22;10390;53.566;9.980;2023-02-12T12:07:18;24.30;1.00
20463;DHT22;10390;53.566;9.980;2023-02-12T12:09:53;24.40;1.00
20463;DHT22;10390;53.566;9.980;2023-02-12T12:21:02;24.70;1.00
20463;DHT22;10390;53.566;9.980;2023-02-12T12:24:08;24.80;1.00
20463;DHT22;10390;53.566;9.980;2023-02-12T12:26:38;24.90;1.00
20463;DHT22;10390;53.566;9.980;2023-02-12T12:29:26;25.00;1.00
20463;DHT22;10390;53.566;9.980;2023-02-12T12:31:59;25.10;1.00
20463;DHT22;10390;53.566;9.980;2023-02-12T12:34:27;25.20;1.00
20463;DHT22;10390;53.566;9.980;2023-02-12T12:42:58;25.30;1.00
20463;DHT22;10390;53.566;9.980;2023-02-12T12:48:22;25.30;1.00
20463;DHT22;10390;53.566;9.980;2023-02-12T12:51:10;25.30;1.00
20463;DHT22;10390;53.566;9.980;2023-02-12T12:56:48;25.30;1.00
20463;DHT22;10390;53.566;9.980;2023-02-12T13:10:38;25.10;1.00
20463;DHT22;10390;53.566;9.980;2023-02-12T13:19:02;25.10;1.00
20463;DHT22;10390;53.566;9.980;2023-02-12T13:21:39;25.10;1.00
20463;DHT22;10390;53.566;9.980;2023-02-12T13:26:59;25.30;1.00
20463;DHT22;10390;53.566;9.980;2023-02-12T13:29:48;25.40;1.00
20463;DHT22;10390;53.566;9.980;2023-02-12T13:34:49;25.50;1.00
20463;DHT22;10390;53.566;9.980;2023-02-12T13:37:40;25.60;1.00
20463;DHT22;10390;53.566;9.980;2023-02-12T13:40:17;25.70;1.00
20463;DHT22;10390;53.566;9.980;2023-02-12T13:48:55;25.90;1.00
20463;DHT22;10390;53.566;9.980;2023-02-12T13:51:29;25.90;1.00
20463;DHT22;10390;53.566;9.980;2023-02-12T13:56:45;26.00;1.00
20463;DHT22;10390;53.566;9.980;2023-02-12T14:02:03;26.00;1.00
20463;DHT22;10390;53.566;9.980;2023-02-12T14:07:08;26.00;1.00
20463;DHT22;10390;53.566;9.980;2023-02-12T14:12:31;26.00;1.00
20463;DHT22;10390;53.566;9.980;2023-02-12T14:15:06;26.00;1.00
20463;DHT22;10390;53.566;9.980;2023-02-12T14:20:32;25.90;1.00
20463;DHT22;10390;53.566;9.980;2023-02-12T14:25:37;25.80;1.00
20463;DHT22;10390;53.566;9.980;2023-02-12T14:28:19;25.80;1.00
20463;DHT22;10390;53.566;9.980;2023-02-12T14:33:48;25.70;1.00
20463;DHT22;10390;53.566;9.980;2023-02-12T14:39:04;25.60;1.00
20463;DHT22;10390;53.566;9.980;2023-02-12T14:41:37;25.60;1.00
20463;DHT22;10390;53.566;9.980;2023-02-12T14:47:00;25.60;1.00
20463;DHT22;10390;53.566;9.980;2023-02-12T14:49:38;25.60;1.00
20463;DHT22;10390;53.566;9.980;2023-02-12T14:55:17;25.70;1.00
20463;DHT22;10390;53.566;9.980;2023-02-12T14:57:39;25.70;1.00
20463;DHT22;10390;53.566;9.980;2023-02-12T15:03:06;25.80;1.00
20463;DHT22;10390;53.566;9.980;2023-02-12T15:05:49;25.80;1.00
20463;DHT22;10390;53.566;9.980;2023-02-12T15:08:53;25.80;1.00
20463;DHT22;10390;53.566;9.980;2023-02-12T15:11:53;25.90;1.00
20463;DHT22;10390;53.566;9.980;2023-02-12T15:19:45;26.00;1.00
20463;DHT22;10390;53.566;9.980;2023-02-12T15:24:43;26.00;1.00
20463;DHT22;10390;53.566;9.980;2023-02-12T15:27:13;26.00;1.00
20463;DHT22;10390;53.566;9.980;2023-02-12T15:29:45;26.10;1.00
20463;DHT22;10390;53.566;9.980;2023-02-12T15:32:22;26.10;1.00
20463;DHT22;10390;53.566;9.980;2023-02-12T15:34:49;26.10;1.00
20463;DHT22;10390;53.566;9.980;2023-02-12T15:37:42;26.10;1.00
20463;DHT22;10390;53.566;9.980;2023-02-12T15:40:13;26.10;1.00
20463;DHT22;10390;53.566;9.980;2023-02-12T15:42:39;26.10;1.00
20463;DHT22;10390;53.566;9.980;2023-02-12T15:47:39;26.10;1.00
20463;DHT22;10390;53.566;9.980;2023-02-12T15:50:10;26.10;1.00
20463;DHT22;10390;53.566;9.980;2023-02-12T15:52:38;26.20;1.00
20463;DHT22;10390;53.566;9.980;2023-02-12T15:55:05;26.10;1.00
20463;DHT22;10390;53.566;9.980;2023-02-12T15:57:31;26.20;1.00
20463;DHT22;10390;53.566;9.980;2023-02-12T16:00:15;26.20;1.00
20463;DHT22;10390;53.566;9.980;2023-02-12T16:02:51;26.10;1.00
20463;DHT22;10390;53.566;9.980;2023-02-12T16:05:16;26.10;1.00
20463;DHT22;10390;53.566;9.980;2023-02-12T16:07:45;26.10;1.00
20463;DHT22;10390;53.566;9.980;2023-02-12T16:10:16;26.10;1.00
20463;DHT22;10390;53.566;9.980;2023-02-12T16:12:43;26.10;1.00
20463;DHT22;10390;53.566;9.980;2023-02-12T16:15:33;26.10;1.00
20463;DHT22;10390;53.566;9.980;2023-02-12T16:17:59;26.10;1.00
20463;DHT22;10390;53.566;9.980;2023-02-12T16:20:30;26.00;1.00
20463;DHT22;10390;53.566;9.980;2023-02-12T16:22:57;26.00;1.00
20463;DHT22;10390;53.566;9.980;2023-02-12T16:25:26;26.00;1.00
20463;DHT22;10390;53.566;9.980;2023-02-12T16:27:57;26.00;1.00
20463;DHT22;10390;53.566;9.980;2023-02-12T16:30:31;25.90;1.00
20463;DHT22;10390;53.566;9.980;2023-02-12T16:32:57;25.90;1.00
20463;DHT22;10390;53.566;9.980;2023-02-12T16:35:32;25.90;1.00
20463;DHT22;10390;53.566;9.980;2023-02-12T16:40:34;25.90;1.00
20463;DHT22;10390;53.566;9.980;2023-02-12T16:43:21;25.80;1.00
20463;DHT22;10390;53.566;9.980;2023-02-12T16:45:48;25.80;1.00
20463;DHT22;10390;53.566;9.980;2023-02-12T16:48:20;25.80;1.00
20463;DHT22;10390;53.566;9.980;2023-02-12T16:50:57;25.80;1.00
20463;DHT22;10390;53.566;9.980;2023-02-12T16:55:58;25.80;1.00
20463;DHT22;10390;53.566;9.980;2023-02-12T16:58:24;25.80;1.00
20463;DHT22;10390;53.566;9.980;2023-02-12T17:00:54;25.70;1.00
20463;DHT22;10390;53.566;9.980;2023-02-12T17:03:21;25.70;1.00
20463;DHT22;10390;53.566;9.980;2023-02-12T17:05:46;25.70;1.00
20463;DHT22;10390;53.566;9.980;2023-02-12T17:08:20;25.80;1.00
20463;DHT22;10390;53.566;9.980;2023-02-12T17:10:46;25.70;1.00
20463;DHT22;10390;53.566;9.980;2023-02-12T17:13:14;25.80;1.00
20463;DHT22;10390;53.566;9.980;2023-02-12T17:18:13;25.80;1.00
20463;DHT22;10390;53.566;9.980;2023-02-12T17:20:39;25.80;1.00
20463;DHT22;10390;53.566;9.980;2023-02-12T17:23:05;25.80;1.00
20463;DHT22;10390;53.566;9.980;2023-02-12T17:25:31;25.80;1.00
20463;DHT22;10390;53.566;9.980;2023-02-12T17:27:58;25.80;1.00
20463;DHT22;10390;53.566;9.980;2023-02-12T17:30:24;25.80;1.00
20463;DHT22;10390;53.566;9.980;2023-02-12T17:32:51;25.90;1.00
20463;DHT22;10390;53.566;9.980;2023-02-12T17:35:16;25.90;1.00
20463;DHT22;10390;53.566;9.980;2023-02-12T17:37:42;25.90;1.00
20463;DHT22;10390;53.566;9.980;2023-02-12T17:40:08;25.90;1.00
20463;DHT22;10390;53.566;9.980;2023-02-12T17:42:35;26.00;1.00
20463;DHT22;10390;53.566;9.980;2023-02-12T17:45:01;26.00;1.00
20463;DHT22;10390;53.566;9.980;2023-02-12T17:47:26;26.00;1.00
20463;DHT22;10390;53.566;9.980;2023-02-12T17:49:52;26.00;1.00
20463;DHT22;10390;53.566;9.980;2023-02-12T17:52:18;26.00;1.00
20463;DHT22;10390;53.566;9.980;2023-02-12T17:54:44;26.00;1.00
20463;DHT22;10390;53.566;9.980;2023-02-12T17:57:10;26.00;1.00
20463;DHT22;10390;53.566;9.980;2023-02-12T17:59:37;26.00;1.00
20463;DHT22;10390;53.566;9.980;2023-02-12T18:02:03;26.00;1.00
20463;DHT22;10390;53.566;9.980;2023-02-12T18:04:32;26.00;1.00
20463;DHT22;10390;53.566;9.980;2023-02-12T18:07:02;26.00;1.00
20463;DHT22;10390;53.566;9.980;2023-02-12T18:09:27;26.00;1.00
20463;DHT22;10390;53.566;9.980;2023-02-12T18:11:53;26.00;1.00
20463;DHT22;10390;53.566;9.980;2023-02-12T18:14:19;26.00;1.00
20463;DHT22;10390;53.566;9.980;2023-02-12T18:16:44;26.00;1.00
20463;DHT22;10390;53.566;9.980;2023-02-12T18:19:10;26.00;1.00
20463;DHT22;10390;53.566;9.980;2023-02-12T18:21:36;26.00;1.00
20463;DHT22;10390;53.566;9.980;2023-02-12T18:24:03;26.00;1.00
20463;DHT22;10390;53.566;9.980;2023-02-12T18:26:29;26.00;1.00
20463;DHT22;10390;53.566;9.980;2023-02-12T18:28:57;26.00;1.00
20463;DHT22;10390;53.566;9.980;2023-02-12T18:31:23;25.90;1.00
20463;DHT22;10390;53.566;9.980;2023-02-12T18:33:49;25.90;1.00
20463;DHT22;10390;53.566;9.980;2023-02-12T18:36:16;26.00;1.00
20463;DHT22;10390;53.566;9.980;2023-02-12T18:38:42;26.00;1.00
20463;DHT22;10390;53.566;9.980;2023-02-12T18:41:15;25.90;1.00
20463;DHT22;10390;53.566;9.980;2023-02-12T18:43:41;25.90;1.00
20463;DHT22;10390;53.566;9.980;2023-02-12T18:46:12;26.00;1.00
20463;DHT22;10390;53.566;9.980;2023-02-12T18:48:39;25.90;1.00
20463;DHT22;10390;53.566;9.980;2023-02-12T18:51:07;25.90;1.00
20463;DHT22;10390;53.566;9.980;2023-02-12T18:53:33;26.00;1.00
20463;DHT22;10390;53.566;9.980;2023-02-12T18:56:03;25.90;1.00
20463;DHT22;10390;53.566;9.980;2023-02-12T18:58:29;26.00;1.00